ADDS METAR Data INFO
IDs: Format: Raw Decoded Include TAF

Data at: 1942 UTC 17 Feb 2018

KINL 171855Z AUTO 28015G21KT 10SM CLR M07/M16 A2977 RMK AO2 SLP102 T10671161
KINL 171755Z AUTO 26010G18KT 10SM CLR M07/M14 A2976 RMK AO2 SLP103 T10721139 11072 21094 53015
KINL 171655Z AUTO 27009KT 10SM CLR M08/M14 A2975 RMK AO2 SLP098 T10781139
KINL 171555Z AUTO 28011KT 10SM CLR M08/M14 A2973 RMK AO2 SLP093 T10831139
KINL 171455Z AUTO 29012G18KT 10SM CLR M09/M13 A2972 RMK AO2 SLP088 T10891133 53017
KINL 171355Z AUTO 27007KT 10SM CLR M09/M12 A2970 RMK AO2 SLP082 T10891122
KINL 171255Z AUTO 26006KT 10SM OVC050 M08/M12 A2968 RMK AO2 SLP074 T10831117
KINL 171155Z AUTO 26008KT 10SM OVC060 M08/M11 A2967 RMK AO2 SLP071 T10781106 11056 21078 53004
KINL 171055Z AUTO 25007KT 10SM BKN050 M08/M11 A2967 RMK AO2 SLP070 T10781111
KINL 170955Z AUTO 26008KT 10SM FEW024 M07/M11 A2965 RMK AO2 SLP064 T10721111
KINL 170855Z AUTO 24008KT 10SM CLR M07/M11 A2966 RMK AO2 SLP065 T10671111 56011
KINL 170844Z AUTO 23007G16KT 10SM SCT027 M06/M12 A2966 RMK AO2 T10611117
KINL 170755Z AUTO 22009KT 10SM BKN029 BKN090 OVC110 M06/M12 A2966 RMK AO2 SLP067 T10611122
KINL 170655Z AUTO 22010KT 10SM BKN075 OVC090 M07/M13 A2967 RMK AO2 SLP071 T10671133
KINL 170555Z AUTO 20009G17KT 10SM FEW038 BKN110 M07/M14 A2969 RMK AO2 SLP078 T10721139 11072 21083 410611261 56024
KINL 170455Z AUTO 20007KT 10SM CLR M08/M15 A2971 RMK AO2 SLP087 T10781150
KINL 170355Z AUTO 19008G15KT 10SM CLR M08/M15 A2973 RMK AO2 SLP097 T10831150
KINL 170255Z AUTO VRB06KT 10SM BKN090 OVC110 M08/M15 A2976 RMK AO2 SLP109 T10781150 58028
KINL 170155Z AUTO 19005KT 10SM BKN050 OVC070 M08/M16 A2980 RMK AO2 SLP122 T10781156
KINL 170055Z AUTO 21009G17KT 10SM OVC085 M08/M16 A2983 RMK AO2 SLP135 T10781156
KINL 162355Z AUTO 20008KT 10SM CLR M08/M16 A2985 RMK AO2 SLP141 T10781161 11061 21106 56027
KINL 162255Z AUTO 21008KT 10SM BKN120 M07/M15 A2987 RMK AO2 SLP148 T10671150
KINL 162155Z AUTO 20007KT 170V230 10SM FEW120 M06/M16 A2989 RMK AO2 SLP156 T10611156
KINL 162055Z AUTO 25009G19KT 10SM CLR M07/M16 A2993 RMK AO2 SLP168 T10671161 56028
KINL 161955Z AUTO 25011G20KT 10SM CLR M07/M18 A2996 RMK AO2 SLP180 T10721178
KINL 161855Z AUTO 24011KT 10SM CLR M08/M19 A2998 RMK AO2 SLP185 T10831194
KINL 161755Z AUTO 23011KT 10SM CLR M10/M20 A3002 RMK AO2 SLP198 T11001200 11100 21244 58009
KINL 161655Z AUTO 24009KT 10SM CLR M13/M21 A3004 RMK AO2 SLP207 T11281206
KINL 161555Z AUTO 25013G18KT 10SM CLR M16/M21 A3005 RMK AO2 SLP211 T11561211
KINL 161455Z AUTO 23010KT 10SM CLR M19/M22 A3004 RMK AO2 SLP211 T11891222 56014
KINL 161355Z AUTO 22009KT 10SM CLR M22/M24 A3006 RMK AO2 SLP217 T12221244
KINL 161255Z AUTO 22007KT 10SM CLR M23/M26 A3006 RMK AO2 SLP218 T12331261
KINL 161155Z AUTO 22006KT 10SM CLR M24/M27 A3009 RMK AO2 SLP226 T12441267 11228 21261 56012
KINL 161055Z AUTO 23007KT 10SM CLR M24/M27 A3009 RMK AO2 SLP226 T12391267
KINL 160955Z AUTO 22006KT 10SM CLR M26/M28 A3012 RMK AO2 SLP234 T12561283
KINL 160855Z AUTO 22005KT 10SM CLR M25/M28 A3012 RMK AO2 SLP235 T12501278 58015
KINL 160755Z AUTO 22004KT 10SM CLR M24/M28 A3014 RMK AO2 SLP240 T12391278